createdAt,value
2023-11-17T00:00:00.452Z,6.31
2023-11-17T00:05:00.824Z,6.31
2023-11-17T00:10:00.627Z,6.31
2023-11-17T00:15:00.458Z,6.31
2023-11-17T00:20:00.348Z,6.31
2023-11-17T00:25:00.517Z,6.31
2023-11-17T00:30:00.496Z,6.34
2023-11-17T00:35:00.716Z,6.34
2023-11-17T00:40:00.506Z,6.34
2023-11-17T00:45:00.468Z,6.34
2023-11-17T00:50:00.390Z,6.13
2023-11-17T00:55:00.461Z,6.13
2023-11-17T01:00:00.411Z,6.13
2023-11-17T01:05:00.386Z,6.13
2023-11-17T01:10:00.689Z,6.13
2023-11-17T01:15:00.456Z,6.13
2023-11-17T01:20:00.420Z,6.06
2023-11-17T01:25:00.523Z,6.06
2023-11-17T01:30:00.445Z,6.06
2023-11-17T01:35:00.503Z,6.06
2023-11-17T01:40:00.633Z,5.81
2023-11-17T01:45:00.335Z,5.81
2023-11-17T01:50:00.538Z,5.81
2023-11-17T01:55:00.430Z,5.58
2023-11-17T02:00:00.503Z,5.58
2023-11-17T02:05:00.373Z,5.36
2023-11-17T02:10:00.716Z,5.36
2023-11-17T02:15:00.465Z,5.36
2023-11-17T02:20:00.327Z,5.15
2023-11-17T02:25:00.459Z,5.15
2023-11-17T02:30:00.403Z,5.11
2023-11-17T02:35:00.302Z,4.88
2023-11-17T02:40:00.709Z,4.88
2023-11-17T02:45:00.317Z,4.88
2023-11-17T02:50:00.362Z,4.88
2023-11-17T02:55:00.539Z,4.88
2023-11-17T03:00:00.337Z,4.66
2023-11-17T03:05:00.358Z,4.66
2023-11-17T03:10:00.563Z,4.66
2023-11-17T03:15:00.391Z,4.66
2023-11-17T03:20:00.436Z,4.43
2023-11-17T03:25:00.555Z,4.43
2023-11-17T03:30:00.524Z,4.43
2023-11-17T03:35:00.376Z,4.43
2023-11-17T03:40:00.771Z,4.43
2023-11-17T03:45:00.358Z,4.43
2023-11-17T03:50:00.407Z,4.22
2023-11-17T03:55:00.636Z,4.22
2023-11-17T04:00:00.435Z,4.22
2023-11-17T04:05:00.300Z,4.22
2023-11-17T04:10:01.171Z,4.22
2023-11-17T04:15:00.343Z,4.22
2023-11-17T04:20:00.396Z,4.16
2023-11-17T04:25:00.500Z,4.16
2023-11-17T04:30:00.451Z,4.16
2023-11-17T04:35:00.303Z,4.16
2023-11-17T04:40:00.665Z,4.16
2023-11-17T04:45:00.383Z,4.16
2023-11-17T04:50:00.331Z,4.22
2023-11-17T04:55:00.530Z,4.22
2023-11-17T05:00:00.365Z,4.22
2023-11-17T05:05:00.318Z,4
2023-11-17T05:10:00.816Z,4.24
2023-11-17T05:15:00.455Z,4.03
2023-11-17T05:20:00.420Z,4.03
2023-11-17T05:25:00.598Z,4.03
2023-11-17T05:30:00.601Z,3.8
2023-11-17T05:35:00.420Z,3.8
2023-11-17T05:40:00.613Z,3.8
2023-11-17T05:45:00.497Z,3.8
2023-11-17T05:50:00.631Z,3.8
2023-11-17T05:55:00.612Z,3.8
2023-11-17T06:00:00.366Z,3.81
2023-11-17T06:05:00.472Z,3.81
2023-11-17T06:10:00.548Z,3.81
2023-11-17T06:15:00.309Z,3.81
2023-11-17T06:20:00.455Z,3.81
2023-11-17T06:25:00.879Z,3.81
2023-11-17T06:30:00.563Z,3.7
2023-11-17T06:35:00.443Z,3.7
2023-11-17T06:40:00.733Z,3.7
2023-11-17T06:45:00.369Z,3.7
2023-11-17T06:50:00.365Z,3.7
2023-11-17T06:55:00.764Z,3.7
2023-11-17T07:00:00.601Z,3.81
2023-11-17T07:05:00.382Z,3.81
2023-11-17T07:10:00.534Z,3.81
2023-11-17T07:15:00.834Z,3.81
2023-11-17T07:20:00.382Z,3.81
2023-11-17T07:25:00.456Z,3.81
2023-11-17T07:30:00.470Z,3.75
2023-11-17T07:35:00.375Z,3.75
2023-11-17T07:40:00.549Z,3.75
2023-11-17T07:45:00.309Z,3.75
2023-11-17T07:50:00.392Z,3.75
2023-11-17T07:55:00.579Z,3.75
2023-11-17T08:00:00.528Z,3.8
2023-11-17T08:05:00.736Z,4.02
2023-11-17T08:10:00.672Z,4.02
2023-11-17T08:15:00.352Z,4.02
2023-11-17T08:20:00.534Z,4.02
2023-11-17T08:25:00.577Z,4.02
2023-11-17T08:30:00.327Z,4.02
2023-11-17T08:35:00.364Z,4
2023-11-17T08:40:00.743Z,4
2023-11-17T08:45:00.378Z,4
2023-11-17T08:50:03.581Z,4
2023-11-17T08:55:00.445Z,4
2023-11-17T09:00:00.498Z,4
2023-11-17T09:05:00.409Z,4.14
2023-11-17T09:10:00.601Z,4.14
2023-11-17T09:15:00.387Z,4.14
2023-11-17T09:20:00.465Z,4.14
2023-11-17T09:25:00.708Z,4.14
2023-11-17T09:30:00.308Z,4.14
2023-11-17T09:35:00.631Z,4.2
2023-11-17T09:40:00.670Z,4.2
2023-11-17T09:45:00.391Z,4.2
2023-11-17T09:50:00.423Z,4.2
2023-11-17T09:55:00.603Z,4.2
2023-11-17T10:00:00.369Z,4.2
2023-11-17T10:05:00.531Z,4.3
2023-11-17T10:10:00.698Z,4.3
2023-11-17T10:15:00.412Z,4.52
2023-11-17T10:20:00.363Z,4.52
2023-11-17T10:25:00.553Z,4.31
2023-11-17T10:30:00.849Z,4.31
2023-11-17T10:35:00.677Z,4.31
2023-11-17T10:40:13.768Z,4.31
2023-11-17T10:45:00.378Z,4.31
2023-11-17T10:50:00.401Z,4.31
2023-11-17T10:55:00.536Z,4.36
2023-11-17T11:00:00.399Z,4.36
2023-11-17T11:05:00.561Z,4.36
2023-11-17T11:10:00.827Z,4.57
2023-11-17T11:15:00.413Z,4.57
2023-11-17T11:20:21.511Z,4.57
2023-11-17T11:25:00.479Z,4.78
2023-11-17T11:30:00.323Z,4.78
2023-11-17T11:35:00.359Z,4.78
2023-11-17T11:40:02.652Z,4.78
2023-11-17T11:45:00.318Z,4.78
2023-11-17T11:50:00.533Z,5.03
2023-11-17T11:55:00.308Z,5.03
2023-11-17T12:00:00.453Z,5.03
2023-11-17T12:05:00.861Z,5.03
2023-11-17T12:10:00.366Z,5.03
2023-11-17T12:15:00.410Z,5.24
2023-11-17T12:20:00.383Z,5.24
2023-11-17T12:25:00.345Z,5.24
2023-11-17T12:30:00.420Z,5.24
2023-11-17T12:35:00.319Z,5.46
2023-11-17T12:40:00.498Z,5.46
2023-11-17T12:45:00.361Z,5.7
2023-11-17T12:50:00.609Z,5.7
2023-11-17T12:55:00.341Z,5.91
2023-11-17T13:00:00.300Z,5.91
2023-11-17T13:05:00.588Z,5.91
2023-11-17T13:10:00.403Z,5.91
2023-11-17T13:15:00.333Z,5.91
2023-11-17T13:20:00.414Z,5.91
2023-11-17T13:25:00.363Z,5.8
2023-11-17T13:30:00.456Z,5.8
2023-11-17T13:35:00.323Z,5.8
2023-11-17T13:40:00.497Z,5.8
2023-11-17T13:45:01.006Z,5.8
2023-11-17T13:50:00.398Z,5.59
2023-11-17T13:55:00.595Z,5.59
2023-11-17T14:00:00.403Z,5.59
2023-11-17T14:05:00.590Z,5.59
2023-11-17T14:10:00.326Z,5.59
2023-11-17T14:15:00.385Z,5.59
2023-11-17T14:20:00.322Z,5.58
2023-11-17T14:25:00.378Z,5.58
2023-11-17T14:30:00.512Z,5.58
2023-11-17T14:35:00.356Z,5.58
2023-11-17T14:40:00.859Z,5.58
2023-11-17T14:45:00.552Z,5.79
2023-11-17T14:50:00.544Z,5.79
2023-11-17T14:55:00.315Z,5.79
2023-11-17T15:00:00.425Z,5.79
2023-11-17T15:05:00.458Z,5.79
2023-11-17T15:10:00.476Z,5.79
2023-11-17T15:15:00.492Z,5.83
2023-11-17T15:20:00.690Z,5.83
2023-11-17T15:25:00.376Z,5.83
2023-11-17T15:30:00.671Z,5.83
2023-11-17T15:35:00.299Z,5.83
2023-11-17T15:40:00.411Z,6.05
2023-11-17T15:45:00.347Z,6.05
2023-11-17T15:50:00.854Z,6.27
2023-11-17T15:55:00.370Z,6.05
2023-11-17T16:00:00.385Z,6.05
2023-11-17T16:05:01.468Z,6.05
2023-11-17T16:10:00.374Z,6.05
2023-11-17T16:15:00.336Z,6.05
2023-11-17T16:20:00.411Z,6.05
2023-11-17T16:25:00.358Z,5.94
2023-11-17T16:30:00.448Z,5.94
2023-11-17T16:35:00.397Z,5.94
2023-11-17T16:40:00.406Z,5.94
2023-11-17T16:45:00.297Z,5.73
2023-11-17T16:50:00.374Z,5.73
2023-11-17T16:55:00.336Z,5.73
2023-11-17T17:00:00.422Z,5.73
2023-11-17T17:05:00.681Z,5.73
2023-11-17T17:10:00.355Z,5.73
2023-11-17T17:15:00.434Z,5.67
2023-11-17T17:20:00.432Z,5.67
2023-11-17T17:25:00.382Z,5.67
2023-11-17T17:30:00.482Z,5.67
2023-11-17T17:35:00.345Z,5.67
2023-11-17T17:40:00.432Z,5.67
2023-11-17T17:45:00.313Z,5.74
2023-11-17T17:50:00.393Z,5.74
2023-11-17T17:55:00.403Z,5.74
2023-11-17T18:00:00.306Z,5.74
2023-11-17T18:05:00.551Z,5.74
2023-11-17T18:10:00.435Z,5.74
2023-11-17T18:15:00.348Z,5.7
2023-11-17T18:20:00.414Z,5.7
2023-11-17T18:25:00.342Z,5.7
2023-11-17T18:30:00.345Z,5.7
2023-11-17T18:35:00.328Z,5.7
2023-11-17T18:40:00.422Z,5.7
2023-11-17T18:45:00.621Z,5.73
2023-11-17T18:50:00.407Z,5.73
2023-11-17T18:55:00.340Z,5.73
2023-11-17T19:00:00.336Z,5.73
2023-11-17T19:05:00.510Z,5.94
2023-11-17T19:10:00.485Z,5.94
2023-11-17T19:15:00.444Z,5.72
2023-11-17T19:20:00.392Z,5.72
2023-11-17T19:25:00.557Z,5.72
2023-11-17T19:30:00.337Z,5.51
2023-11-17T19:35:00.705Z,5.51
2023-11-17T19:40:00.405Z,5.51
2023-11-17T19:45:00.352Z,5.51
2023-11-17T19:50:00.324Z,5.51
2023-11-17T19:55:00.301Z,5.51
2023-11-17T20:00:00.351Z,5.39
2023-11-17T20:05:00.613Z,5.39
2023-11-17T20:10:00.585Z,5.39
2023-11-17T20:15:00.321Z,5.39
2023-11-17T20:20:00.438Z,5.39
2023-11-17T20:25:00.348Z,5.39
2023-11-17T20:30:00.385Z,5.37
2023-11-17T20:35:00.624Z,5.37
2023-11-17T20:40:00.474Z,5.37
2023-11-17T20:45:00.403Z,5.37
2023-11-17T20:50:00.698Z,5.37
2023-11-17T20:55:00.410Z,5.37
2023-11-17T21:00:00.319Z,5.54
2023-11-17T21:05:00.503Z,5.54
2023-11-17T21:10:00.396Z,5.54
2023-11-17T21:15:00.450Z,5.54
2023-11-17T21:20:00.520Z,5.76
2023-11-17T21:25:00.386Z,5.76
2023-11-17T21:30:00.449Z,5.76
2023-11-17T21:35:00.642Z,5.76
2023-11-17T21:40:00.421Z,5.76
2023-11-17T21:45:00.324Z,5.76
2023-11-17T21:50:00.543Z,5.72
2023-11-17T21:55:00.348Z,5.72
2023-11-17T22:00:00.559Z,5.72
2023-11-17T22:05:00.538Z,5.73
2023-11-17T22:10:00.451Z,5.73
2023-11-17T22:15:00.338Z,5.73
2023-11-17T22:20:00.559Z,5.73
2023-11-17T22:25:00.582Z,5.73
2023-11-17T22:30:00.371Z,5.73
2023-11-17T22:35:00.512Z,5.64
2023-11-17T22:40:00.363Z,5.64
2023-11-17T22:45:00.368Z,5.64
2023-11-17T22:50:00.538Z,5.64
2023-11-17T22:55:00.352Z,5.64
2023-11-17T23:00:00.385Z,5.64
2023-11-17T23:05:00.569Z,5.51
2023-11-17T23:10:00.495Z,5.51
2023-11-17T23:15:00.398Z,5.51
2023-11-17T23:20:00.809Z,5.51
2023-11-17T23:25:00.416Z,5.51
2023-11-17T23:30:00.487Z,5.51
2023-11-17T23:35:00.484Z,5.55
2023-11-17T23:40:00.350Z,5.55
2023-11-17T23:45:00.414Z,5.55
2023-11-17T23:50:00.648Z,5.55
2023-11-17T23:55:00.337Z,5.55
